Time;durP1;ratioP1;P1;durP2;ratioP2;P2;SDS_P1;SDS_P2;PMS_P1;PMS_P2;Temp;Humidity;BMP_temperature;BMP_pressure;BME280_temperature;BME280_humidity;BME280_pressure;Samples;Min_cycle;Max_cycle;Signal;HPM_P1;HPM_P2
2021/04/13 00:06:31;;;;;;;3.28;2.05;;;14.40;40.20;;;;;;20748654;28;20069;-52
2021/04/13 00:16:34;;;;;;;5.18;2.28;;;14.60;38.40;;;;;;20748695;28;20056;-52
2021/04/13 00:26:36;;;;;;;3.42;2.00;;;14.60;37.70;;;;;;20748237;28;20038;-51
2021/04/13 00:36:37;;;;;;;4.85;2.00;;;14.70;36.50;;;;;;20748086;28;20033;-52
2021/04/13 00:47:01;;;;;;;4.20;1.95;;;14.70;36.70;;;;;;20747031;28;20033;-52
2021/04/13 00:57:14;;;;;;;5.03;2.30;;;14.70;36.30;;;;;;20746329;28;20078;-52
2021/04/13 01:07:19;;;;;;;5.00;2.90;;;14.70;36.50;;;;;;20746253;28;20398;-52
2021/04/13 01:17:20;;;;;;;;;;;14.70;39.60;;;;;;20746664;28;20054;-51
2021/04/13 01:27:22;;;;;;;4.05;2.55;;;14.60;40.40;;;;;;20761453;28;20381;-53
2021/04/13 01:47:44;;;;;;;5.43;2.22;;;14.70;41.40;;;;;;20759647;28;20034;-52
2021/04/13 01:58:06;;;;;;;4.65;2.22;;;14.50;41.00;;;;;;20758632;28;20054;-51
2021/04/13 02:08:25;;;;;;;3.17;2.10;;;14.50;40.00;;;;;;20757678;28;20061;-52
2021/04/13 02:18:49;;;;;;;3.40;2.10;;;14.50;41.70;;;;;;20756949;28;20386;-51
2021/04/13 02:28:52;;;;;;;3.55;2.13;;;14.50;41.70;;;;;;20755337;28;20037;-51
2021/04/13 02:38:55;;;;;;;3.35;1.48;;;14.30;40.50;;;;;;20755596;28;20018;-52
2021/04/13 02:49:08;;;;;;;4.15;1.73;;;14.40;39.60;;;;;;20754617;28;20084;-50
2021/04/13 02:59:11;;;;;;;3.17;1.70;;;14.40;39.70;;;;;;20753395;28;20065;-52
2021/04/13 03:09:14;;;;;;;4.97;2.10;;;14.40;40.50;;;;;;20751143;28;20085;-52
2021/04/13 03:19:21;;;;;;;3.30;1.70;;;14.50;40.90;;;;;;20752656;28;20494;-52
2021/04/13 03:29:50;;;;;;;3.05;1.40;;;14.50;40.70;;;;;;20751797;28;20548;-52
2021/04/13 03:39:52;;;;;;;3.13;1.48;;;14.30;38.90;;;;;;20742053;28;20505;-53
2021/04/13 03:49:53;;;;;;;5.82;2.50;;;14.20;39.50;;;;;;20750172;28;20037;-52
2021/04/13 03:59:57;;;;;;;7.40;2.90;;;14.20;42.00;;;;;;20749141;28;20095;-52
2021/04/13 04:09:58;;;;;;;3.80;1.30;;;14.00;43.40;;;;;;20749673;28;20552;-52
2021/04/13 04:20:08;;;;;;;2.92;1.40;;;13.90;40.60;;;;;;20748761;28;20076;-52
2021/04/13 04:30:20;;;;;;;4.00;1.75;;;13.70;40.40;;;;;;20748467;28;20042;-53
2021/04/13 04:40:27;;;;;;;3.05;1.30;;;13.60;40.80;;;;;;20747930;28;20030;-52
2021/04/13 04:50:28;;;;;;;3.20;1.55;;;13.60;41.10;;;;;;20747511;28;20120;-52
2021/04/13 05:00:29;;;;;;;2.50;1.23;;;13.50;41.50;;;;;;20761077;28;20462;-52
2021/04/13 05:10:29;;;;;;;3.88;2.45;;;13.40;41.60;;;;;;20761994;28;20553;-52
2021/04/13 05:20:30;;;;;;;3.00;2.08;;;13.40;42.10;;;;;;20761586;28;20018;-51
2021/04/13 05:30:31;;;;;;;3.65;2.10;;;13.30;42.50;;;;;;20760825;28;20030;-52
2021/04/13 05:40:34;;;;;;;7.35;2.42;;;13.20;42.90;;;;;;20759614;28;20026;-50
2021/04/13 05:50:38;;;;;;;5.80;2.25;;;13.20;43.60;;;;;;20759461;28;20414;-53
2021/04/13 06:00:40;;;;;;;3.80;2.20;;;13.20;44.10;;;;;;20758023;28;20133;-50
2021/04/13 06:10:41;;;;;;;3.80;1.90;;;13.20;44.60;;;;;;20756332;28;20087;-53
2021/04/13 06:20:42;;;;;;;7.05;2.45;;;13.20;45.00;;;;;;20757245;28;20017;-52
2021/04/13 06:30:43;;;;;;;5.80;2.42;;;13.30;45.30;;;;;;20754490;28;20483;-52
2021/04/13 06:40:56;;;;;;;7.35;2.35;;;13.30;45.60;;;;;;20756004;28;20405;-52
2021/04/13 06:51:19;;;;;;;4.50;2.50;;;13.30;45.80;;;;;;20754917;28;20096;-50
2021/04/13 07:01:30;;;;;;;6.40;2.50;;;13.50;46.00;;;;;;20752663;28;20394;-51
2021/04/13 07:11:40;;;;;;;7.82;2.50;;;13.70;45.80;;;;;;20751336;28;20037;-52
2021/04/13 07:21:52;;;;;;;7.63;2.72;;;13.70;46.40;;;;;;20744195;28;20041;-51
2021/04/13 07:32:26;;;;;;;5.53;3.33;;;13.90;46.10;;;;;;20750711;28;20478;-51
2021/04/13 07:42:31;;;;;;;5.83;2.63;;;14.00;46.30;;;;;;20749580;28;20037;-51
2021/04/13 07:52:35;;;;;;;;;;;14.10;46.40;;;;;;20750200;28;20462;-52
2021/04/13 08:02:36;;;;;;;7.05;3.92;;;14.30;46.20;;;;;;20749105;28;19972;-51
2021/04/13 08:12:52;;;;;;;6.38;3.33;;;15.10;45.40;;;;;;20749142;28;20026;-53
2021/04/13 08:23:07;;;;;;;8.90;4.75;;;15.10;48.00;;;;;;20748261;28;20041;-51
2021/04/13 08:33:20;;;;;;;9.77;4.57;;;15.00;50.50;;;;;;20747433;28;20064;-52
2021/04/13 08:43:31;;;;;;;14.43;5.53;;;14.70;54.00;;;;;;20747228;28;20418;-51
2021/04/13 08:53:36;;;;;;;13.93;4.70;;;14.70;56.00;;;;;;20746869;28;20101;-52
2021/04/13 09:03:43;;;;;;;10.15;4.70;;;14.60;57.20;;;;;;20745652;28;20100;-53
2021/04/13 09:14:11;;;;;;;8.52;4.93;;;14.60;58.40;;;;;;20729965;28;20042;-53
2021/04/13 09:24:28;;;;;;;9.32;5.53;;;14.80;58.60;;;;;;20745530;28;20445;-53
2021/04/13 09:35:12;;;;;;;10.50;5.85;;;14.80;59.60;;;;;;20745360;28;20038;-57
2021/04/13 09:45:15;;;;;;;10.82;4.07;;;14.90;59.60;;;;;;20756690;28;20091;-58
2021/04/13 09:55:38;;;;;;;18.70;11.77;;;15.20;55.90;;;;;;20727401;28;20077;-48
2021/04/13 10:05:46;;;;;;;11.70;6.30;;;15.90;55.60;;;;;;20755759;28;20372;-47
2021/04/13 10:16:03;;;;;;;9.15;5.82;;;16.20;55.40;;;;;;20756453;28;20076;-48
2021/04/13 10:26:34;;;;;;;8.30;5.25;;;16.20;55.50;;;;;;20754650;28;20038;-48
2021/04/13 10:37:05;;;;;;;7.60;3.95;;;16.10;54.00;;;;;;20754882;28;20034;-49
2021/04/13 10:47:37;;;;;;;9.43;4.78;;;16.40;53.00;;;;;;20753785;28;20168;-49
2021/04/13 10:58:02;;;;;;;9.27;3.88;;;16.50;53.20;;;;;;20724602;28;20057;-47
2021/04/13 11:08:03;;;;;;;10.30;5.10;;;17.00;52.10;;;;;;20752591;28;20041;-49
2021/04/13 11:18:23;;;;;;;10.27;5.43;;;17.20;51.50;;;;;;20751621;28;20026;-48
2021/04/13 11:29:09;;;;;;;7.88;4.93;;;17.50;50.80;;;;;;20749246;28;20033;-50
2021/04/13 11:39:36;;;;;;;7.65;4.90;;;17.70;48.70;;;;;;20750093;28;20034;-50
2021/04/13 11:49:55;;;;;;;7.32;3.97;;;17.60;46.50;;;;;;20749803;28;20060;-50
2021/04/13 12:00:11;;;;;;;7.90;4.45;;;17.40;45.70;;;;;;20749192;28;20141;-50
2021/04/13 12:10:34;;;;;;;7.78;3.45;;;17.70;44.50;;;;;;20748086;28;20486;-51
2021/04/13 12:20:39;;;;;;;6.47;2.70;;;17.60;43.10;;;;;;20748831;28;20493;-50
2021/04/13 12:30:43;;;;;;;5.25;2.17;;;17.40;41.70;;;;;;20730652;28;20124;-50
2021/04/13 12:41:10;;;;;;;3.17;2.10;;;17.20;42.30;;;;;;20747311;28;20040;-50
2021/04/13 12:51:28;;;;;;;6.20;3.22;;;17.00;43.20;;;;;;20747429;28;20144;-49
2021/04/13 13:01:38;;;;;;;4.68;2.58;;;16.70;47.40;;;;;;20746546;28;20048;-50
2021/04/13 13:11:39;;;;;;;6.78;2.70;;;16.20;49.40;;;;;;20746203;28;20026;-50
2021/04/13 13:21:52;;;;;;;4.38;3.20;;;15.70;51.40;;;;;;20760387;28;20042;-50
2021/04/13 13:31:52;;;;;;;6.35;2.15;;;15.50;54.80;;;;;;20760563;28;20092;-51
2021/04/13 13:41:58;;;;;;;4.15;2.40;;;15.30;53.90;;;;;;20759706;28;20038;-50
2021/04/13 13:52:12;;;;;;;3.92;2.00;;;15.10;53.30;;;;;;20759004;28;20022;-50
2021/04/13 14:02:18;;;;;;;5.67;2.57;;;15.10;52.20;;;;;;20757656;28;20045;-50
2021/04/13 14:12:35;;;;;;;4.97;2.90;;;15.00;53.20;;;;;;20755779;28;20441;-51
2021/04/13 14:22:36;;;;;;;4.15;1.95;;;15.00;52.80;;;;;;20740110;28;20088;-50
2021/04/13 14:32:38;;;;;;;3.42;1.80;;;14.90;50.80;;;;;;20755732;28;20096;-50
2021/04/13 14:42:39;;;;;;;4.70;1.67;;;15.00;49.90;;;;;;20754931;28;20104;-50
2021/04/13 14:52:41;;;;;;;4.53;1.50;;;14.90;50.30;;;;;;20750049;28;20030;-48
2021/04/13 15:02:42;;;;;;;3.45;1.73;;;15.20;50.50;;;;;;20739595;28;20472;-47
2021/04/13 15:12:43;;;;;;;4.20;1.90;;;15.60;49.30;;;;;;20780776;28;20084;-48
2021/04/13 15:22:43;;;;;;;4.45;1.80;;;16.00;48.90;;;;;;20784798;28;20124;-49
2021/04/13 15:32:44;;;;;;;3.38;1.98;;;15.90;48.10;;;;;;20815710;28;20067;-49
2021/04/13 15:42:52;;;;;;;4.78;1.40;;;15.80;47.50;;;;;;20832787;28;20115;-50
2021/04/13 15:52:53;;;;;;;4.80;1.80;;;15.60;47.90;;;;;;20831867;28;20109;-49
2021/04/13 16:02:54;;;;;;;6.10;1.88;;;15.60;48.40;;;;;;20831725;28;20037;-49
2021/04/13 16:12:55;;;;;;;4.82;1.63;;;15.60;48.90;;;;;;20829830;28;20056;-48
2021/04/13 16:22:57;;;;;;;2.88;1.60;;;15.50;48.50;;;;;;20829859;28;20131;-50
2021/04/13 16:33:02;;;;;;;4.78;1.52;;;15.40;48.10;;;;;;20830327;28;20136;-49
2021/04/13 16:43:41;;;;;;;4.93;1.77;;;15.50;48.80;;;;;;20828592;28;20029;-50
2021/04/13 16:53:42;;;;;;;3.22;1.52;;;15.60;48.80;;;;;;20427946;28;20077;-49
2021/04/13 17:03:49;;;;;;;3.22;1.92;;;15.40;51.00;;;;;;20433164;29;20063;-50
2021/04/13 17:14:02;;;;;;;4.63;1.90;;;15.50;52.10;;;;;;20432230;29;20067;-50
2021/04/13 17:24:13;;;;;;;3.00;1.80;;;15.50;52.60;;;;;;20645830;28;20565;-48
2021/04/13 17:34:14;;;;;;;3.97;1.85;;;15.70;52.60;;;;;;20842230;28;20363;-50
2021/04/13 17:44:20;;;;;;;5.05;1.75;;;15.40;53.30;;;;;;20841125;28;20037;-49
2021/04/13 17:54:21;;;;;;;3.28;1.70;;;15.40;53.90;;;;;;20822745;28;20085;-48
2021/04/13 18:04:35;;;;;;;4.72;1.67;;;15.40;54.30;;;;;;20840033;28;20034;-50
2021/04/13 18:14:54;;;;;;;5.15;1.83;;;15.30;55.00;;;;;;20836778;28;20048;-48
2021/04/13 18:25:08;;;;;;;4.47;1.92;;;15.20;55.30;;;;;;20840402;28;20044;-51
2021/04/13 18:35:29;;;;;;;3.80;1.48;;;15.20;55.80;;;;;;20805418;28;20030;-50
2021/04/13 18:45:41;;;;;;;3.30;1.65;;;15.10;56.10;;;;;;20806520;28;20038;-50
2021/04/13 18:55:58;;;;;;;2.58;1.65;;;15.00;56.60;;;;;;20819784;28;20477;-50
2021/04/13 19:06:07;;;;;;;2.60;1.80;;;15.00;56.80;;;;;;20836053;28;20095;-49
2021/04/13 19:16:11;;;;;;;4.95;2.00;;;14.90;57.30;;;;;;20834809;28;20033;-50
2021/04/13 19:27:10;;;;;;;2.80;2.00;;;14.90;58.30;;;;;;20833906;28;20034;-49
2021/04/13 19:37:45;;;;;;;3.05;2.00;;;14.90;58.70;;;;;;20422291;28;20094;-50
2021/04/13 19:47:51;;;;;;;5.10;2.42;;;14.90;58.60;;;;;;20421105;28;20047;-50
2021/04/13 19:57:53;;;;;;;4.05;1.90;;;14.80;59.30;;;;;;20420301;28;20067;-50
2021/04/13 20:07:55;;;;;;;5.72;2.80;;;14.70;59.60;;;;;;20779911;28;20129;-49
2021/04/13 20:17:58;;;;;;;4.45;2.10;;;14.80;59.20;;;;;;20829494;28;20037;-49
2021/04/13 20:28:05;;;;;;;4.68;2.53;;;14.70;58.90;;;;;;20828029;28;20037;-49
2021/04/13 20:38:24;;;;;;;4.03;2.25;;;14.70;58.60;;;;;;20829162;28;20017;-50
2021/04/13 20:48:44;;;;;;;5.18;2.40;;;14.70;58.50;;;;;;20828551;28;20076;-50
2021/04/13 20:59:16;;;;;;;7.43;4.18;;;14.80;58.50;;;;;;20828038;28;20041;-49
2021/04/13 21:09:25;;;;;;;7.18;2.13;;;14.80;58.70;;;;;;20417943;28;20051;-50
2021/04/13 21:19:26;;;;;;;3.88;1.70;;;14.70;58.70;;;;;;20417232;28;20036;-48
2021/04/13 21:29:29;;;;;;;3.45;1.98;;;14.50;58.60;;;;;;20416602;28;20054;-50
2021/04/13 21:39:31;;;;;;;4.18;1.98;;;14.60;58.50;;;;;;20537432;28;20042;-49
2021/04/13 21:49:36;;;;;;;3.63;1.80;;;14.50;58.70;;;;;;20841391;28;20183;-49
2021/04/13 21:59:56;;;;;;;3.17;2.17;;;14.50;58.70;;;;;;20840512;28;20044;-50
2021/04/13 22:10:06;;;;;;;3.53;2.00;;;14.50;58.60;;;;;;20840349;28;20033;-49
2021/04/13 22:20:39;;;;;;;3.08;1.90;;;14.40;58.50;;;;;;20839535;28;20030;-49
2021/04/13 22:30:56;;;;;;;5.43;1.92;;;14.40;58.50;;;;;;20838630;28;20029;-49
2021/04/13 22:40:58;;;;;;;3.53;1.50;;;14.40;58.50;;;;;;20837844;28;20393;-49
2021/04/13 22:50:59;;;;;;;4.80;1.60;;;14.30;58.60;;;;;;20836841;28;20512;-48
2021/04/13 23:01:01;;;;;;;2.58;1.50;;;14.20;58.50;;;;;;20835892;28;20445;-48
2021/04/13 23:11:05;;;;;;;3.63;1.45;;;14.20;58.70;;;;;;20836022;28;20055;-49
2021/04/13 23:21:06;;;;;;;4.75;2.35;;;14.20;58.80;;;;;;20834814;28;20604;-49
2021/04/13 23:31:07;;;;;;;3.88;1.45;;;14.20;58.80;;;;;;20833631;28;20040;-49
2021/04/13 23:41:08;;;;;;;3.67;1.63;;;14.20;59.00;;;;;;20832886;28;20096;-48
2021/04/13 23:51:09;;;;;;;3.88;1.50;;;14.20;59.00;;;;;;20832672;28;20037;-49
